createdAt,value
2022-12-28T00:00:00.410Z,83.9
2022-12-28T00:01:00.555Z,83.8
2022-12-28T00:02:00.779Z,83.8
2022-12-28T00:03:00.954Z,83.7
2022-12-28T00:04:00.994Z,83.7
2022-12-28T00:05:01.148Z,83.8
2022-12-28T00:06:00.302Z,83.9
2022-12-28T00:07:00.444Z,83.8
2022-12-28T00:08:00.620Z,83.7
2022-12-28T00:09:00.753Z,83.8
2022-12-28T00:10:00.901Z,83.8
2022-12-28T00:11:07.812Z,83.8
2022-12-28T00:12:01.197Z,83.7
2022-12-28T00:13:00.387Z,83.7
2022-12-28T00:14:00.636Z,83.8
2022-12-28T00:15:00.645Z,83.9
2022-12-28T00:16:00.824Z,83.9
2022-12-28T00:17:00.950Z,83.8
2022-12-28T00:18:01.112Z,83.8
2022-12-28T00:19:01.256Z,83.8
2022-12-28T00:20:00.391Z,83.9
2022-12-28T00:21:00.523Z,83.9
2022-12-28T00:22:00.681Z,84
2022-12-28T00:23:00.836Z,83.9
2022-12-28T00:24:00.985Z,83.9
2022-12-28T00:25:01.120Z,84
2022-12-28T00:27:00.375Z,83.9
2022-12-28T00:28:00.549Z,83.9
2022-12-28T00:29:04.727Z,83.9
2022-12-28T00:30:00.803Z,83.9
2022-12-28T00:31:00.986Z,84
2022-12-28T00:32:01.235Z,84
2022-12-28T00:33:01.265Z,84
2022-12-28T00:34:00.403Z,84.1
2022-12-28T00:35:00.569Z,84.3
2022-12-28T00:36:00.741Z,84.3
2022-12-28T00:37:08.925Z,84.2
2022-12-28T00:38:01.030Z,84.3
2022-12-28T00:39:01.174Z,84.2
2022-12-28T00:40:00.319Z,84.4
2022-12-28T00:41:00.493Z,84.4
2022-12-28T00:42:00.648Z,84.2
2022-12-28T00:43:00.777Z,84.2
2022-12-28T00:44:00.930Z,84.1
2022-12-28T00:45:01.073Z,84.1
2022-12-28T00:46:01.266Z,84.2
2022-12-28T00:47:00.375Z,84.3
2022-12-28T00:48:00.512Z,84.4
2022-12-28T00:49:00.680Z,84.5
2022-12-28T00:50:00.803Z,84.5
2022-12-28T00:51:00.959Z,84.6
2022-12-28T00:52:01.149Z,84.5
2022-12-28T00:53:01.258Z,84.4
2022-12-28T00:54:00.418Z,84.3
2022-12-28T00:55:00.555Z,84.3
2022-12-28T00:56:00.708Z,84.3
2022-12-28T00:57:00.872Z,84.3
2022-12-28T00:58:01.006Z,84.3
2022-12-28T00:59:01.151Z,84.4
2022-12-28T01:00:00.296Z,84.5
2022-12-28T01:01:00.532Z,84.4
2022-12-28T01:02:00.772Z,84.4
2022-12-28T01:03:00.802Z,84.5
2022-12-28T01:04:00.900Z,84.5
2022-12-28T01:05:01.046Z,84.5
2022-12-28T01:06:01.194Z,84.6
2022-12-28T01:07:00.373Z,84.6
2022-12-28T01:08:00.508Z,84.6
2022-12-28T01:09:00.690Z,84.6
2022-12-28T01:10:00.811Z,84.7
2022-12-28T01:11:00.950Z,84.6
2022-12-28T01:12:01.095Z,84.6
2022-12-28T01:13:01.252Z,84.6
2022-12-28T01:14:00.404Z,84.5
2022-12-28T01:15:00.535Z,84.6
2022-12-28T01:16:00.726Z,84.6
2022-12-28T01:17:00.832Z,84.5
2022-12-28T01:18:00.988Z,84.4
2022-12-28T01:19:01.149Z,84.3
2022-12-28T01:20:00.277Z,84.3
2022-12-28T01:21:00.439Z,84.4
2022-12-28T01:22:00.583Z,84.4
2022-12-28T01:23:00.724Z,84.4
2022-12-28T01:24:00.900Z,84.3
2022-12-28T01:25:01.021Z,84.5
2022-12-28T01:26:01.173Z,84.5
2022-12-28T01:27:00.325Z,84.5
2022-12-28T01:28:00.468Z,84.6
2022-12-28T01:29:00.655Z,84.7
2022-12-28T01:30:00.771Z,84.8
2022-12-28T01:31:00.919Z,84.9
2022-12-28T01:32:01.122Z,84.9
2022-12-28T01:33:01.218Z,84.7
2022-12-28T01:34:00.377Z,84.7
2022-12-28T01:35:00.532Z,84.7
2022-12-28T01:36:00.681Z,84.6
2022-12-28T01:37:00.825Z,84.6
2022-12-28T01:38:00.971Z,84.6
2022-12-28T01:39:01.133Z,84.6
2022-12-28T01:40:00.273Z,84.6
2022-12-28T01:41:00.423Z,84.5
2022-12-28T01:42:00.596Z,84.6
2022-12-28T01:43:00.709Z,84.6
2022-12-28T01:44:00.860Z,84.6
2022-12-28T01:45:00.997Z,84.6
2022-12-28T01:46:01.223Z,84.5
2022-12-28T01:47:00.326Z,84.5
2022-12-28T01:48:00.480Z,84.4
2022-12-28T01:49:00.619Z,84.5
2022-12-28T01:50:00.752Z,84.5
2022-12-28T01:51:00.895Z,84.7
2022-12-28T01:52:01.051Z,84.7
2022-12-28T01:53:01.217Z,84.7
2022-12-28T01:54:00.353Z,84.8
2022-12-28T01:55:00.498Z,84.8
2022-12-28T01:56:00.643Z,84.8
2022-12-28T01:57:00.786Z,84.7
2022-12-28T01:58:00.954Z,84.7
2022-12-28T01:59:01.085Z,84.6
2022-12-28T02:00:01.236Z,84.6
2022-12-28T02:01:00.465Z,84.6
2022-12-28T02:02:00.747Z,84.6
2022-12-28T02:03:00.758Z,84.4
2022-12-28T02:04:00.830Z,84.4
2022-12-28T02:05:00.962Z,84.3
2022-12-28T02:06:01.103Z,84.3
2022-12-28T02:07:01.255Z,84.1
2022-12-28T02:08:00.405Z,83.9
2022-12-28T02:09:00.553Z,83.7
2022-12-28T02:10:41.474Z,83.7
2022-12-28T02:11:00.885Z,83.7
2022-12-28T02:12:00.988Z,83.7
2022-12-28T02:13:01.207Z,83.6
2022-12-28T02:14:00.281Z,83.5
2022-12-28T02:15:00.439Z,83.5
2022-12-28T02:16:00.611Z,83.5
2022-12-28T02:17:00.758Z,83.6
2022-12-28T02:18:00.886Z,83.4
2022-12-28T02:19:01.030Z,83.3
2022-12-28T02:20:01.185Z,83.4
2022-12-28T02:21:00.343Z,83.3
2022-12-28T02:22:00.480Z,83.1
2022-12-28T02:23:00.660Z,83
2022-12-28T02:24:00.774Z,82.9
2022-12-28T02:25:12.710Z,83
2022-12-28T02:26:01.070Z,83
2022-12-28T02:27:01.224Z,83.1
2022-12-28T02:28:00.413Z,83.1
2022-12-28T02:29:00.511Z,83.1
2022-12-28T02:30:00.661Z,83.2
2022-12-28T02:31:00.849Z,83.2
2022-12-28T02:32:00.951Z,83.2
2022-12-28T02:33:01.135Z,83.1
2022-12-28T02:34:01.248Z,83
2022-12-28T02:35:00.404Z,83.1
2022-12-28T02:36:00.560Z,82.9
2022-12-28T02:37:00.738Z,82.8
2022-12-28T02:38:00.878Z,82.8
2022-12-28T02:39:01.042Z,82.8
2022-12-28T02:40:01.182Z,82.8
2022-12-28T02:41:00.314Z,82.9
2022-12-28T02:42:00.468Z,83
2022-12-28T02:43:00.615Z,83
2022-12-28T02:44:00.798Z,82.9
2022-12-28T02:45:00.928Z,82.6
2022-12-28T02:46:01.162Z,82.5
2022-12-28T02:47:01.192Z,82.3
2022-12-28T02:48:00.350Z,82.3
2022-12-28T02:49:00.526Z,82.2
2022-12-28T02:50:00.683Z,82.2
2022-12-28T02:51:00.808Z,82.2
2022-12-28T02:52:00.940Z,82.1
2022-12-28T02:53:01.107Z,82
2022-12-28T02:54:01.240Z,81.7
2022-12-28T02:55:00.401Z,81.5
2022-12-28T02:56:00.537Z,81.4
2022-12-28T02:57:00.675Z,81.5
2022-12-28T02:58:00.824Z,81.4
2022-12-28T02:59:00.989Z,81.4
2022-12-28T03:00:01.147Z,81.3
2022-12-28T03:01:00.413Z,81.3
2022-12-28T03:02:00.540Z,81.2
2022-12-28T03:03:00.611Z,81
2022-12-28T03:04:00.699Z,81
2022-12-28T03:05:00.879Z,81.1
2022-12-28T03:06:01.004Z,81.2
2022-12-28T03:07:01.167Z,81.3
2022-12-28T03:08:00.312Z,81.2
2022-12-28T03:09:00.455Z,80.9
2022-12-28T03:10:00.634Z,80.9
2022-12-28T03:11:00.756Z,80.5
2022-12-28T03:12:00.905Z,80.7
2022-12-28T03:13:01.054Z,80.7
2022-12-28T03:14:01.208Z,80.8
2022-12-28T03:15:00.387Z,80.1
2022-12-28T03:16:00.571Z,80.2
2022-12-28T03:17:00.663Z,80.4
2022-12-28T03:18:00.848Z,80.3
2022-12-28T03:19:00.975Z,80.6
2022-12-28T03:20:01.143Z,80.8
2022-12-28T03:21:01.241Z,80.7
2022-12-28T03:22:00.406Z,80.6
2022-12-28T03:23:00.553Z,80.5
2022-12-28T03:24:00.701Z,80.6
2022-12-28T03:25:00.859Z,80.5
2022-12-28T03:26:01.005Z,80.5
2022-12-28T03:27:01.147Z,80.6
2022-12-28T03:28:00.306Z,80.6
2022-12-28T03:29:00.458Z,80.3
2022-12-28T03:30:00.609Z,80.4
2022-12-28T03:31:00.772Z,79.9
2022-12-28T03:32:00.904Z,80
2022-12-28T03:33:01.077Z,80.1
2022-12-28T03:34:01.211Z,80.2
2022-12-28T03:35:00.345Z,80.1
2022-12-28T03:36:00.505Z,80
2022-12-28T03:37:00.656Z,79.7
2022-12-28T03:38:00.836Z,79.4
2022-12-28T03:39:00.962Z,79.6
2022-12-28T03:40:01.091Z,79.7
2022-12-28T03:41:01.242Z,79.7
2022-12-28T03:42:00.393Z,79.9
2022-12-28T03:43:00.571Z,79.9
2022-12-28T03:44:00.704Z,80.1
2022-12-28T03:45:00.854Z,79.9
2022-12-28T03:46:01.090Z,79.8
2022-12-28T03:47:01.150Z,80
2022-12-28T03:48:00.306Z,79.9
2022-12-28T03:49:00.461Z,80
2022-12-28T03:50:00.598Z,79.9
2022-12-28T03:51:00.753Z,80.1
2022-12-28T03:52:00.885Z,79.9
2022-12-28T03:53:01.049Z,79.7
2022-12-28T03:54:01.200Z,79.8
2022-12-28T03:55:00.360Z,79.8
2022-12-28T03:56:00.484Z,79.7
2022-12-28T03:57:00.613Z,79.8
2022-12-28T03:58:00.768Z,79.8
2022-12-28T03:59:00.940Z,79.7
2022-12-28T04:00:01.061Z,79.8
2022-12-28T04:01:01.317Z,79.9
2022-12-28T04:02:00.536Z,79.8
2022-12-28T04:03:00.550Z,79.7
2022-12-28T04:04:00.686Z,79.4
2022-12-28T04:05:00.812Z,79.4
2022-12-28T04:06:00.977Z,79.5
2022-12-28T04:07:01.096Z,79.3
2022-12-28T04:08:01.241Z,79.3
2022-12-28T04:09:00.407Z,79.1
2022-12-28T04:10:00.553Z,79.2
2022-12-28T04:11:00.716Z,79.1
2022-12-28T04:12:00.856Z,78.9
2022-12-28T04:13:01.009Z,79
2022-12-28T04:14:04.305Z,79.3
2022-12-28T04:15:00.295Z,79.1
2022-12-28T04:16:00.522Z,78.9
2022-12-28T04:17:00.606Z,78.7
2022-12-28T04:18:00.732Z,79
2022-12-28T04:19:00.883Z,78.9
2022-12-28T04:20:01.033Z,79.1
2022-12-28T04:21:01.196Z,79
2022-12-28T04:22:00.321Z,79.1
2022-12-28T04:23:00.479Z,79.3
2022-12-28T04:24:00.619Z,79.3
2022-12-28T04:25:00.767Z,79.4
2022-12-28T04:26:00.931Z,79.6
2022-12-28T04:27:01.083Z,79.4
2022-12-28T04:28:01.222Z,79.5
2022-12-28T04:29:00.359Z,79.4
2022-12-28T04:30:00.514Z,79.7
2022-12-28T04:31:00.732Z,79.8
2022-12-28T04:32:00.839Z,80
2022-12-28T04:33:00.949Z,79.9
2022-12-28T04:34:01.095Z,79.7
2022-12-28T04:35:01.268Z,79.9
2022-12-28T04:36:00.397Z,79.5
2022-12-28T04:37:00.560Z,79.8
2022-12-28T04:38:00.722Z,79.6
2022-12-28T04:39:00.847Z,79.7
2022-12-28T04:40:00.990Z,79.5
2022-12-28T04:41:01.220Z,79.4
2022-12-28T04:42:00.278Z,79.2
2022-12-28T04:43:00.444Z,79.5
2022-12-28T04:44:00.605Z,79.3
2022-12-28T04:45:00.759Z,79.3
2022-12-28T04:46:00.914Z,79
2022-12-28T04:47:01.140Z,78.9
2022-12-28T04:48:01.186Z,79.2
2022-12-28T04:49:00.332Z,78.9
2022-12-28T04:50:00.488Z,78.9
2022-12-28T04:51:00.656Z,79.1
2022-12-28T04:52:00.780Z,78.8
2022-12-28T04:53:00.950Z,78.8
2022-12-28T04:54:01.095Z,78.6
2022-12-28T04:55:01.230Z,78.9
2022-12-28T04:56:00.417Z,78.9
2022-12-28T04:57:00.527Z,79.2
2022-12-28T04:58:00.758Z,78.7
2022-12-28T04:59:00.833Z,78.9
2022-12-28T05:00:00.985Z,79
2022-12-28T05:01:01.276Z,78.9
2022-12-28T05:02:00.483Z,78.9
2022-12-28T05:03:00.658Z,79.1
2022-12-28T05:04:00.594Z,79.1
2022-12-28T05:05:00.752Z,78.9
2022-12-28T05:06:00.889Z,79
2022-12-28T05:07:01.024Z,78.7
2022-12-28T05:08:01.186Z,78.9
2022-12-28T05:09:00.338Z,79
2022-12-28T05:10:00.479Z,79.1
2022-12-28T05:11:00.662Z,79.2
2022-12-28T05:12:00.788Z,78.9
2022-12-28T05:13:00.944Z,78.9
2022-12-28T05:14:01.063Z,78.9
2022-12-28T05:15:01.208Z,78.9
2022-12-28T05:16:00.433Z,78.7
2022-12-28T05:17:00.543Z,79
2022-12-28T05:18:00.657Z,79
2022-12-28T05:19:00.800Z,79.1
2022-12-28T05:20:00.951Z,79
2022-12-28T05:21:01.108Z,79.2
2022-12-28T05:22:01.284Z,78.8
2022-12-28T05:23:00.416Z,78.8
2022-12-28T05:24:00.566Z,78.8
2022-12-28T05:25:00.728Z,78.8
2022-12-28T05:26:00.864Z,79.1
2022-12-28T05:27:01.048Z,79.1
2022-12-28T05:28:01.167Z,78.9
2022-12-28T05:29:00.315Z,78.8
2022-12-28T05:30:00.452Z,78.9
2022-12-28T05:31:00.692Z,79.1
2022-12-28T05:32:00.776Z,79.1
2022-12-28T05:33:00.905Z,78.5
2022-12-28T05:34:01.059Z,78.6
2022-12-28T05:35:01.194Z,78.7
2022-12-28T05:36:00.335Z,78.8
2022-12-28T05:37:00.510Z,78.9
2022-12-28T05:38:00.634Z,78.9
2022-12-28T05:39:00.782Z,78.7
2022-12-28T05:40:00.927Z,78.8
2022-12-28T05:41:01.084Z,78.5
2022-12-28T05:42:01.264Z,78.4
2022-12-28T05:43:00.374Z,77.9
2022-12-28T05:44:00.518Z,78.3
2022-12-28T05:45:00.689Z,78.3
2022-12-28T05:46:00.815Z,78.1
2022-12-28T05:47:01.045Z,78.4
2022-12-28T05:48:01.119Z,78.4
2022-12-28T05:49:00.279Z,78.6
2022-12-28T05:50:00.413Z,78.6
2022-12-28T05:51:00.576Z,78.6
2022-12-28T05:52:00.739Z,78.9
2022-12-28T05:53:00.887Z,78.9
2022-12-28T05:54:01.021Z,78.5
2022-12-28T05:55:01.169Z,78.8
2022-12-28T05:56:00.314Z,78.6
2022-12-28T05:57:00.484Z,78.5
2022-12-28T05:58:00.637Z,78.5
2022-12-28T05:59:00.791Z,78.2
2022-12-28T06:00:00.901Z,78.4
2022-12-28T06:01:01.064Z,78.5
2022-12-28T06:02:01.406Z,78.4
2022-12-28T06:03:00.524Z,77.9
2022-12-28T06:04:00.515Z,78
2022-12-28T06:05:00.661Z,78.7
2022-12-28T06:06:00.800Z,78.1
2022-12-28T06:07:00.948Z,78.1
2022-12-28T06:08:01.291Z,78.6
2022-12-28T06:09:01.263Z,78.6
2022-12-28T06:10:00.405Z,78.2
2022-12-28T06:11:00.542Z,78.4
2022-12-28T06:12:00.679Z,78.4
2022-12-28T06:13:00.833Z,78.6
2022-12-28T06:14:01.011Z,77.9
2022-12-28T06:15:01.135Z,78
2022-12-28T06:16:00.296Z,78.1
2022-12-28T06:17:00.471Z,78
2022-12-28T06:18:00.572Z,78.3
2022-12-28T06:19:00.740Z,77.9
2022-12-28T06:20:00.865Z,77.8
2022-12-28T06:21:01.006Z,78.2
2022-12-28T06:22:01.158Z,78.5
2022-12-28T06:23:00.305Z,78.5
2022-12-28T06:24:00.491Z,78.7
2022-12-28T06:25:00.617Z,78.5
2022-12-28T06:26:00.750Z,78.9
2022-12-28T06:27:00.896Z,78.7
2022-12-28T06:28:01.053Z,78.7
2022-12-28T06:29:01.222Z,79
2022-12-28T06:30:00.355Z,79.1
2022-12-28T06:31:00.504Z,79.1
2022-12-28T06:32:00.723Z,79
2022-12-28T06:33:00.787Z,78.9
2022-12-28T06:34:00.959Z,79
2022-12-28T06:35:01.089Z,78.9
2022-12-28T06:36:01.231Z,79.1
2022-12-28T06:37:00.390Z,79.1
2022-12-28T06:38:00.547Z,79.1
2022-12-28T06:39:00.709Z,78.9
2022-12-28T06:40:00.834Z,78.8
2022-12-28T06:41:13.913Z,79
2022-12-28T06:42:01.120Z,78.9
2022-12-28T06:44:00.398Z,79.1
2022-12-28T06:45:00.533Z,78.8
2022-12-28T06:46:00.727Z,78.5
2022-12-28T06:47:00.812Z,78.4
2022-12-28T06:48:00.960Z,78.5
2022-12-28T06:49:01.178Z,78.4
2022-12-28T06:50:01.265Z,78.3
2022-12-28T06:51:00.405Z,78.4
2022-12-28T06:52:00.562Z,78.2
2022-12-28T06:53:00.700Z,78.1
2022-12-28T06:54:00.896Z,78.3
2022-12-28T06:55:01.007Z,78.6
2022-12-28T06:56:01.173Z,78.8
2022-12-28T06:57:00.318Z,78.7
2022-12-28T06:58:00.443Z,78.6
2022-12-28T06:59:03.794Z,78.7
2022-12-28T07:00:00.760Z,78.6
2022-12-28T07:01:00.976Z,78.8
2022-12-28T07:02:01.240Z,78.8
2022-12-28T07:03:01.253Z,78.5
2022-12-28T07:04:00.319Z,78.2
2022-12-28T07:05:00.471Z,78.6
2022-12-28T07:06:00.614Z,78.6
2022-12-28T07:07:00.777Z,78.7
2022-12-28T07:08:00.909Z,78.8
2022-12-28T07:09:01.058Z,79
2022-12-28T07:10:01.205Z,79.1
2022-12-28T07:11:00.359Z,78.7
2022-12-28T07:12:00.516Z,78.6
2022-12-28T07:13:00.653Z,78.7
2022-12-28T07:14:00.791Z,79
2022-12-28T07:15:01.034Z,79.1
2022-12-28T07:16:01.081Z,79
2022-12-28T07:17:01.297Z,79.3
2022-12-28T07:18:00.373Z,78.9
2022-12-28T07:19:00.529Z,79.1
2022-12-28T07:20:00.690Z,79.2
2022-12-28T07:21:00.826Z,79.3
2022-12-28T07:22:00.997Z,78.9
2022-12-28T07:23:01.117Z,79.1
2022-12-28T07:24:00.279Z,79.3
2022-12-28T07:25:00.415Z,79.1
2022-12-28T07:26:00.574Z,79.6
2022-12-28T07:27:00.740Z,79.4
2022-12-28T07:28:00.861Z,79.4
2022-12-28T07:29:01.043Z,79.5
2022-12-28T07:30:01.161Z,79.5
2022-12-28T07:31:00.407Z,79.5
2022-12-28T07:32:00.487Z,79.9
2022-12-28T07:33:00.633Z,79.7
2022-12-28T07:34:00.750Z,79.7
2022-12-28T07:35:00.894Z,79.7
2022-12-28T07:36:01.041Z,79.7
2022-12-28T07:37:01.191Z,79.7
2022-12-28T07:38:00.352Z,79.9
2022-12-28T07:39:00.521Z,80
2022-12-28T07:40:00.633Z,80
2022-12-28T07:41:00.781Z,80
2022-12-28T07:42:00.929Z,80
2022-12-28T07:43:01.083Z,80.1
2022-12-28T07:44:01.279Z,79.8
2022-12-28T07:45:00.359Z,80
2022-12-28T07:46:00.559Z,80
2022-12-28T07:47:00.667Z,80.1
2022-12-28T07:48:00.805Z,80.1
2022-12-28T07:49:01.003Z,80.1
2022-12-28T07:50:01.104Z,80.1
2022-12-28T07:51:01.248Z,79.9
2022-12-28T07:52:00.396Z,79.7
2022-12-28T07:53:00.532Z,79.9
2022-12-28T07:54:00.697Z,80.2
2022-12-28T07:55:00.849Z,79.9
2022-12-28T07:56:00.976Z,79.8
2022-12-28T07:57:01.176Z,79.8
2022-12-28T07:58:00.282Z,79.6
2022-12-28T07:59:00.488Z,79.5
2022-12-28T08:00:00.587Z,79.6
2022-12-28T08:01:00.834Z,79.8
2022-12-28T08:02:00.942Z,79.7
2022-12-28T08:03:01.025Z,80
2022-12-28T08:04:01.219Z,79.9
2022-12-28T08:05:00.321Z,79.9
2022-12-28T08:06:00.477Z,80.2
2022-12-28T08:07:00.612Z,80.2
2022-12-28T08:08:03.755Z,80
2022-12-28T08:09:00.909Z,80
2022-12-28T08:10:01.047Z,80
2022-12-28T08:11:01.221Z,80.1
2022-12-28T08:12:00.350Z,80.3
2022-12-28T08:13:00.492Z,80.2
2022-12-28T08:14:00.634Z,80.3
2022-12-28T08:15:00.789Z,80.3
2022-12-28T08:16:00.995Z,79.9
2022-12-28T08:17:01.086Z,79.9
2022-12-28T08:18:01.236Z,80.2
2022-12-28T08:19:00.432Z,80.5
2022-12-28T08:20:00.528Z,79.9
2022-12-28T08:21:00.700Z,80
2022-12-28T08:22:00.826Z,79.9
2022-12-28T08:23:00.969Z,80.3
2022-12-28T08:24:01.111Z,80.1
2022-12-28T08:25:00.265Z,79.8
2022-12-28T08:26:00.413Z,79.7
2022-12-28T08:27:00.583Z,79.5
2022-12-28T08:28:00.751Z,79.8
2022-12-28T08:29:00.867Z,79.8
2022-12-28T08:30:01.023Z,79.9
2022-12-28T08:31:01.186Z,79.8
2022-12-28T08:32:00.311Z,79.9
2022-12-28T08:33:00.470Z,79.6
2022-12-28T08:34:00.614Z,79.8
2022-12-28T08:35:00.753Z,79.7
2022-12-28T08:36:00.909Z,79.5
2022-12-28T08:37:01.060Z,79.6
2022-12-28T08:38:01.217Z,79.3
2022-12-28T08:39:00.358Z,78.7
2022-12-28T08:40:00.495Z,79.4
2022-12-28T08:41:00.654Z,79
2022-12-28T08:42:00.804Z,79.1
2022-12-28T08:43:00.985Z,79.5
2022-12-28T08:44:01.101Z,79.2
2022-12-28T08:45:01.267Z,79.3
2022-12-28T08:46:00.565Z,78.6
2022-12-28T08:47:00.595Z,79
2022-12-28T08:48:00.712Z,78.5
2022-12-28T08:49:00.845Z,79
2022-12-28T08:50:01.029Z,79.1
2022-12-28T08:51:01.131Z,79
2022-12-28T08:52:00.286Z,79.1
2022-12-28T08:53:00.427Z,79.2
2022-12-28T08:54:00.614Z,78.8
2022-12-28T08:55:00.746Z,79
2022-12-28T08:56:06.197Z,79
2022-12-28T08:57:01.002Z,78.9
2022-12-28T08:58:01.174Z,79
2022-12-28T08:59:00.354Z,78.9
2022-12-28T09:00:00.469Z,78.5
2022-12-28T09:01:00.651Z,78.9
2022-12-28T09:02:00.884Z,78.9
2022-12-28T09:03:01.110Z,78.9
2022-12-28T09:04:01.056Z,78.6
2022-12-28T09:05:01.179Z,78.9
2022-12-28T09:06:00.327Z,78.9
2022-12-28T09:07:00.476Z,79
2022-12-28T09:08:00.644Z,78.7
2022-12-28T09:09:06.671Z,78.3
2022-12-28T09:10:00.937Z,78.6
2022-12-28T09:11:01.072Z,78.5
2022-12-28T09:12:01.220Z,78.6
2022-12-28T09:13:00.384Z,78.7
2022-12-28T09:14:00.518Z,78.6
2022-12-28T09:15:00.677Z,78.5
2022-12-28T09:16:00.847Z,78.4
2022-12-28T09:17:00.948Z,78
2022-12-28T09:18:01.129Z,78.2
2022-12-28T09:19:01.286Z,77.8
2022-12-28T09:20:00.425Z,77.9
2022-12-28T09:21:00.573Z,77.3
2022-12-28T09:22:00.689Z,77.5
2022-12-28T09:23:00.839Z,77.8
2022-12-28T09:24:01.015Z,78.1
2022-12-28T09:25:01.139Z,77.8
2022-12-28T09:26:00.309Z,77.6
2022-12-28T09:27:00.439Z,77.7
2022-12-28T09:28:00.588Z,77.7
2022-12-28T09:29:00.744Z,77.3
2022-12-28T09:30:00.880Z,77.3
2022-12-28T09:31:01.126Z,77.6
2022-12-28T09:32:01.187Z,77.1
2022-12-28T09:33:00.330Z,77.4
2022-12-28T09:34:35.476Z,77.6
2022-12-28T09:35:00.616Z,76.9
2022-12-28T09:36:00.791Z,76.1
2022-12-28T09:37:01.028Z,76.7
2022-12-28T09:38:01.068Z,77.5
2022-12-28T09:39:01.274Z,77.4
2022-12-28T09:40:01.757Z,76.9
2022-12-28T09:41:00.513Z,77.1
2022-12-28T09:42:00.686Z,76.7
2022-12-28T09:43:00.823Z,77
2022-12-28T09:44:00.991Z,77.6
2022-12-28T09:45:01.135Z,76.9
2022-12-28T09:46:00.259Z,77
2022-12-28T09:47:00.512Z,77.1
2022-12-28T09:48:00.565Z,77.5
2022-12-28T09:49:00.742Z,77.4
2022-12-28T09:50:00.896Z,77.5
2022-12-28T09:51:01.010Z,77.7
2022-12-28T09:52:01.165Z,77.7
2022-12-28T09:53:00.312Z,77.4
2022-12-28T09:54:00.456Z,77.6
2022-12-28T09:55:00.669Z,77.5
2022-12-28T09:56:00.778Z,77
2022-12-28T09:57:00.942Z,77.2
2022-12-28T09:58:01.105Z,77
2022-12-28T09:59:01.234Z,76.9
2022-12-28T10:00:00.376Z,77.4
2022-12-28T10:01:00.567Z,77.4
2022-12-28T10:02:00.836Z,77.6
2022-12-28T10:03:00.864Z,77.5
2022-12-28T10:04:00.977Z,77.4
2022-12-28T10:05:01.124Z,77.2
2022-12-28T10:06:00.272Z,77.2
2022-12-28T10:07:00.433Z,77.2
2022-12-28T10:08:00.565Z,77.1
2022-12-28T10:09:00.714Z,77.2
2022-12-28T10:10:00.851Z,77.5
2022-12-28T10:11:01.004Z,77.8
2022-12-28T10:12:01.170Z,77.4
2022-12-28T10:13:00.315Z,77
2022-12-28T10:14:00.455Z,77.4
2022-12-28T10:15:00.693Z,77
2022-12-28T10:16:00.809Z,77.1
2022-12-28T10:17:00.885Z,77.7
2022-12-28T10:18:01.057Z,77.4
2022-12-28T10:19:01.188Z,77.2
2022-12-28T10:20:00.334Z,77.6
2022-12-28T10:21:00.478Z,77.7
2022-12-28T10:22:00.627Z,76.9
2022-12-28T10:23:00.801Z,77.5
2022-12-28T10:24:31.882Z,77.6
2022-12-28T10:25:01.081Z,77.3
2022-12-28T10:26:01.238Z,76.7
2022-12-28T10:27:00.377Z,76.7
2022-12-28T10:28:00.559Z,77.8
2022-12-28T10:29:00.697Z,77.7
2022-12-28T10:30:00.838Z,77.1
2022-12-28T10:31:01.005Z,76.9
2022-12-28T10:32:01.155Z,76.8
2022-12-28T10:33:03.026Z,76.1
2022-12-28T10:34:00.448Z,76.2
2022-12-28T10:35:00.566Z,76.8
2022-12-28T10:36:00.710Z,76.8
2022-12-28T10:37:00.851Z,76.4
2022-12-28T10:38:01.033Z,76.7
2022-12-28T10:39:01.183Z,77.3
2022-12-28T10:40:00.479Z,77.1
2022-12-28T10:41:00.458Z,76.6
2022-12-28T10:42:00.614Z,76.4
2022-12-28T10:43:04.183Z,76.7
2022-12-28T10:44:37.309Z,77
2022-12-28T10:45:01.065Z,76.5
2022-12-28T10:46:01.207Z,76.6
2022-12-28T10:47:00.422Z,76.4
2022-12-28T10:48:00.508Z,76.9
2022-12-28T10:49:00.675Z,76.4
2022-12-28T10:50:37.020Z,76.5
2022-12-28T10:51:01.027Z,76.3
2022-12-28T10:52:01.166Z,76.6
2022-12-28T10:53:00.299Z,75.8
2022-12-28T10:54:00.505Z,76.5
2022-12-28T10:55:08.491Z,76.4
2022-12-28T10:56:00.777Z,76.1
2022-12-28T10:57:00.905Z,75.9
2022-12-28T10:58:28.593Z,76.3
2022-12-28T10:59:01.191Z,77
2022-12-28T11:00:00.331Z,75.7
2022-12-28T11:01:00.679Z,76.1
2022-12-28T11:02:00.890Z,75.8
2022-12-28T11:03:00.989Z,75.8
2022-12-28T11:04:00.941Z,75.2
2022-12-28T11:05:01.070Z,75.6
2022-12-28T11:06:01.219Z,76.2
2022-12-28T11:07:00.500Z,76.7
2022-12-28T11:08:00.513Z,76.3
2022-12-28T11:09:00.668Z,76.5
2022-12-28T11:10:00.803Z,75.5
2022-12-28T11:11:00.950Z,76.2
2022-12-28T11:12:01.111Z,76.2
2022-12-28T11:13:01.252Z,75.9
2022-12-28T11:14:00.415Z,75.9
2022-12-28T11:15:00.526Z,75.9
2022-12-28T11:16:00.793Z,76.3
2022-12-28T11:17:00.840Z,76.4
2022-12-28T11:18:00.963Z,76.4
2022-12-28T11:19:01.132Z,76.7
2022-12-28T11:20:00.274Z,76.7
2022-12-28T11:21:00.440Z,76.6
2022-12-28T11:22:00.615Z,76.8
2022-12-28T11:23:00.726Z,77
2022-12-28T11:24:00.860Z,76.9
2022-12-28T11:25:01.033Z,76.8
2022-12-28T11:26:01.173Z,77.2
2022-12-28T11:27:00.344Z,76.4
2022-12-28T11:28:00.474Z,76.8
2022-12-28T11:29:00.644Z,76.3
2022-12-28T11:30:00.771Z,76.3
2022-12-28T11:31:00.934Z,76.5
2022-12-28T11:32:01.169Z,76.4
2022-12-28T11:33:01.254Z,76.3
2022-12-28T11:34:00.400Z,76.9
2022-12-28T11:35:00.566Z,76.4
2022-12-28T11:36:02.487Z,76.3
2022-12-28T11:37:00.826Z,76.9
2022-12-28T11:38:00.973Z,77.9
2022-12-28T11:39:01.155Z,77.3
2022-12-28T11:40:00.265Z,76.9
2022-12-28T11:41:00.419Z,76.5
2022-12-28T11:42:37.414Z,76.9
2022-12-28T11:43:00.724Z,76.2
2022-12-28T11:44:00.892Z,77.2
2022-12-28T11:45:01.052Z,77.1
2022-12-28T11:46:01.224Z,76.7
2022-12-28T11:47:00.319Z,76.7
2022-12-28T11:48:00.466Z,76.7
2022-12-28T11:49:00.626Z,76.8
2022-12-28T11:50:00.826Z,76.6
2022-12-28T11:51:00.922Z,76.9
2022-12-28T11:52:01.076Z,76.2
2022-12-28T11:53:01.222Z,76.6
2022-12-28T11:54:00.369Z,76.2
2022-12-28T11:55:00.535Z,76.7
2022-12-28T11:56:00.671Z,77.2
2022-12-28T11:57:00.825Z,77.6
2022-12-28T11:58:00.960Z,76.1
2022-12-28T11:59:01.124Z,75.7
2022-12-28T12:00:01.259Z,76.1
2022-12-28T12:01:00.478Z,76
2022-12-28T12:02:00.624Z,76.2
2022-12-28T12:03:00.754Z,75.8
2022-12-28T12:04:00.849Z,76.1
2022-12-28T12:05:00.997Z,75.6
2022-12-28T12:06:01.167Z,75.4
2022-12-28T12:07:00.316Z,75.3
2022-12-28T12:08:00.484Z,75.7
2022-12-28T12:09:00.628Z,76
2022-12-28T12:10:00.762Z,76.2
2022-12-28T12:11:00.911Z,76
2022-12-28T12:12:01.097Z,75
2022-12-28T12:13:01.216Z,76.1
2022-12-28T12:14:00.347Z,75.5
2022-12-28T12:15:00.495Z,75.8
2022-12-28T12:16:00.651Z,74.9
2022-12-28T12:17:00.873Z,74.9
2022-12-28T12:18:00.928Z,74.5
2022-12-28T12:19:01.105Z,75.7
2022-12-28T12:20:01.243Z,76
2022-12-28T12:21:00.387Z,75
2022-12-28T12:22:00.546Z,74.7
2022-12-28T12:23:00.683Z,75.3
2022-12-28T12:24:00.850Z,75.8
2022-12-28T12:25:00.978Z,75
2022-12-28T12:26:01.133Z,75
2022-12-28T12:27:00.289Z,75.3
2022-12-28T12:28:00.419Z,75.2
2022-12-28T12:29:00.568Z,75.4
2022-12-28T12:30:00.735Z,75.1
2022-12-28T12:31:00.896Z,75.9
2022-12-28T12:32:01.046Z,76.5
2022-12-28T12:33:01.175Z,76.2
2022-12-28T12:34:00.307Z,75.8
2022-12-28T12:35:00.455Z,75.8
2022-12-28T12:36:00.623Z,75.9
2022-12-28T12:37:00.788Z,75.7
2022-12-28T12:38:00.927Z,75.6
2022-12-28T12:39:01.090Z,75.7
2022-12-28T12:40:01.210Z,75.7
2022-12-28T12:41:00.362Z,75.4
2022-12-28T12:42:00.531Z,75.8
2022-12-28T12:43:00.675Z,76.7
2022-12-28T12:44:00.824Z,76.2
2022-12-28T12:45:00.967Z,76.8
2022-12-28T12:46:01.153Z,76.6
2022-12-28T12:47:05.702Z,75.5
2022-12-28T12:48:00.407Z,76.3
2022-12-28T12:49:00.561Z,75.6
2022-12-28T12:50:00.719Z,75
2022-12-28T12:51:00.845Z,75.3
2022-12-28T12:52:01.013Z,75.4
2022-12-28T12:53:01.155Z,74.8
2022-12-28T12:54:00.303Z,74.8
2022-12-28T12:55:00.478Z,74.3
2022-12-28T12:56:00.599Z,75.3
2022-12-28T12:57:00.760Z,75.2
2022-12-28T12:58:00.909Z,73.8
2022-12-28T12:59:01.060Z,74.6
2022-12-28T13:00:01.212Z,74.9
2022-12-28T13:01:00.632Z,75.2
2022-12-28T13:02:00.621Z,74.5
2022-12-28T13:03:00.752Z,74.4
2022-12-28T13:04:00.804Z,75.1
2022-12-28T13:05:00.965Z,74.9
2022-12-28T13:06:01.153Z,74.9
2022-12-28T13:07:01.263Z,75.8
2022-12-28T13:08:00.401Z,75.9
2022-12-28T13:09:05.317Z,75.3
2022-12-28T13:10:00.731Z,75.8
2022-12-28T13:11:00.891Z,75.5
2022-12-28T13:12:01.011Z,75.8
2022-12-28T13:13:01.164Z,75.8
2022-12-28T13:14:00.314Z,75.6
2022-12-28T13:15:00.459Z,75.9
2022-12-28T13:16:00.724Z,76.7
2022-12-28T13:17:00.763Z,76.2
2022-12-28T13:18:18.081Z,76.5
2022-12-28T13:19:01.042Z,76.3
2022-12-28T13:20:01.197Z,75.9
2022-12-28T13:21:00.378Z,75.8
2022-12-28T13:22:00.518Z,74.9
2022-12-28T13:23:00.652Z,75.8
2022-12-28T13:24:00.786Z,75.4
2022-12-28T13:25:00.954Z,75.8